Time;durP1;ratioP1;P1;durP2;ratioP2;P2;SDS_P1;SDS_P2;PMS_P1;PMS_P2;Temp;Humidity;BMP_temperature;BMP_pressure;BME280_temperature;BME280_humidity;BME280_pressure;Samples;Min_cycle;Max_cycle;Signal;HPM_P1;HPM_P2
2023/01/20 00:00:03;;;;;;;16.67;10.43;;;;;;;1.97;79.53;98924.38;421526;23;924;-89
2023/01/20 00:00:16;;;;;;;16.73;10.15;;;;;;;1.94;79.39;98919.28;424639;23;719;-89
2023/01/20 00:00:29;;;;;;;16.20;9.80;;;;;;;1.89;79.00;98927.84;423262;23;1111;-88
2023/01/20 00:00:42;;;;;;;17.65;10.10;;;;;;;1.84;78.86;98927.91;424187;23;780;-88
2023/01/20 00:00:59;;;;;;;18.42;10.20;;;;;;;1.86;79.47;98928.75;424491;23;685;-88
2023/01/20 00:01:12;;;;;;;16.95;9.90;;;;;;;1.85;78.92;98924.50;426418;23;816;-88
2023/01/20 00:01:25;;;;;;;16.88;10.10;;;;;;;1.90;78.75;98922.72;424824;23;711;-88
2023/01/20 00:01:47;;;;;;;17.42;10.38;;;;;;;1.83;78.99;98923.63;422063;23;905;-89
2023/01/20 00:01:59;;;;;;;16.05;9.95;;;;;;;1.83;79.09;98925.34;422185;23;820;-91
2023/01/20 00:02:11;;;;;;;15.90;10.00;;;;;;;1.80;79.94;98921.13;421489;23;1930;-91
2023/01/20 00:02:23;;;;;;;17.58;10.32;;;;;;;1.81;79.67;98922.78;421548;23;1023;-91
2023/01/20 00:02:36;;;;;;;17.75;10.38;;;;;;;1.85;80.13;98926.19;422463;23;678;-90
2023/01/20 00:02:48;;;;;;;16.30;10.07;;;;;;;1.91;80.02;98927.00;422014;23;852;-88
2023/01/20 00:03:00;;;;;;;15.32;9.95;;;;;;;1.95;80.34;98930.38;423714;23;946;-88
2023/01/20 00:03:12;;;;;;;16.45;10.10;;;;;;;1.99;80.30;98920.09;419375;23;954;-88
2023/01/20 00:03:24;;;;;;;17.80;10.50;;;;;;;2.04;79.65;98916.63;421610;23;1096;-88
2023/01/20 00:03:38;;;;;;;20.10;10.77;;;;;;;2.04;80.14;98926.88;421001;23;1031;-88
2023/01/20 00:03:54;;;;;;;18.00;10.18;;;;;;;2.11;80.13;98923.38;422726;23;800;-88
2023/01/20 00:04:06;;;;;;;15.63;9.80;;;;;;;2.14;79.95;98923.34;420956;23;1058;-88
2023/01/20 00:04:19;;;;;;;15.65;9.80;;;;;;;2.17;79.80;98925.88;419158;23;925;-90
2023/01/20 00:04:31;;;;;;;16.35;9.82;;;;;;;2.19;79.87;98925.03;421524;23;1023;-90
2023/01/20 00:05:03;;;;;;;16.38;9.82;;;;;;;2.23;79.95;98928.38;421599;23;946;-91
2023/01/20 00:05:16;;;;;;;16.65;9.80;;;;;;;2.28;79.77;98923.22;421910;23;807;-90
2023/01/20 00:05:28;;;;;;;17.98;10.02;;;;;;;2.29;79.83;98927.47;421304;23;1166;-90
2023/01/20 00:05:50;;;;;;;17.35;10.00;;;;;;;2.32;79.90;98928.28;421312;23;1002;-89
2023/01/20 00:06:02;;;;;;;16.15;9.95;;;;;;;2.35;79.88;98923.09;423739;23;1106;-87
2023/01/20 00:06:15;;;;;;;16.38;10.00;;;;;;;2.39;79.38;98927.38;423286;23;1158;-87
2023/01/20 00:06:27;;;;;;;15.40;9.75;;;;;;;2.43;79.35;98929.88;424501;23;723;-88
2023/01/20 00:06:40;;;;;;;15.10;9.90;;;;;;;2.42;79.69;98930.75;423611;23;1055;-88
2023/01/20 00:06:53;;;;;;;15.25;9.93;;;;;;;2.42;79.88;98928.19;424526;23;696;-90
2023/01/20 00:07:05;;;;;;;15.38;9.80;;;;;;;2.31;79.87;98934.28;423225;23;1067;-91
2023/01/20 00:07:17;;;;;;;15.20;9.65;;;;;;;2.29;80.00;98932.59;423708;23;947;-91
2023/01/20 00:07:29;;;;;;;15.63;9.90;;;;;;;2.29;80.57;98924.91;424181;23;681;-91
2023/01/20 00:07:41;;;;;;;15.35;9.88;;;;;;;2.25;80.60;98926.63;423889;23;870;-90
2023/01/20 00:07:53;;;;;;;15.98;10.05;;;;;;;2.23;80.76;98928.38;425849;23;972;-90
2023/01/20 00:08:05;;;;;;;15.98;10.02;;;;;;;2.21;80.89;98930.09;425858;23;950;-90
2023/01/20 00:08:17;;;;;;;15.90;9.93;;;;;;;2.22;81.14;98928.41;423133;23;1038;-88
2023/01/20 00:08:29;;;;;;;17.08;9.77;;;;;;;2.23;81.16;98923.25;422070;23;916;-87
2023/01/20 00:08:41;;;;;;;19.52;10.30;;;;;;;2.14;81.32;98924.19;421379;23;1050;-88
2023/01/20 00:08:55;;;;;;;18.00;9.93;;;;;;;2.13;81.10;98931.91;421749;23;1067;-87
2023/01/20 00:09:15;;;;;;;17.10;9.98;;;;;;;2.09;81.44;98931.06;421611;23;1025;-88
2023/01/20 00:09:27;;;;;;;17.65;10.10;;;;;;;1.99;82.04;98922.66;422387;23;820;-90
2023/01/20 00:09:39;;;;;;;16.50;10.07;;;;;;;1.93;81.89;98935.53;423579;23;846;-90
2023/01/20 00:09:51;;;;;;;16.75;10.40;;;;;;;1.94;81.82;98932.09;423696;23;891;-90
2023/01/20 00:10:03;;;;;;;17.40;10.77;;;;;;;1.92;82.37;98927.84;423340;23;1161;-90
2023/01/20 00:10:16;;;;;;;17.63;10.65;;;;;;;1.83;82.35;98931.31;423692;23;1044;-90
2023/01/20 00:10:27;;;;;;;20.08;10.98;;;;;;;1.85;82.83;98927.06;426609;23;694;-90
2023/01/20 00:10:39;;;;;;;21.38;10.70;;;;;;;1.79;82.73;98929.66;423706;23;942;-90
2023/01/20 00:10:52;;;;;;;19.13;10.13;;;;;;;1.78;82.88;98927.97;419578;23;779;-91
2023/01/20 00:11:05;;;;;;;18.08;10.27;;;;;;;1.77;82.66;98927.13;419822;23;768;-91
2023/01/20 00:11:18;;;;;;;16.08;10.35;;;;;;;1.73;82.96;98937.38;419441;23;1026;-89
2023/01/20 00:11:30;;;;;;;16.52;10.65;;;;;;;1.75;82.67;98933.09;420217;23;678;-88
2023/01/20 00:11:43;;;;;;;16.95;10.88;;;;;;;1.77;82.85;98932.25;421076;23;1371;-88
2023/01/20 00:11:55;;;;;;;17.27;10.65;;;;;;;1.82;82.88;98928.78;425927;23;886;-88
2023/01/20 00:12:07;;;;;;;18.02;10.80;;;;;;;1.81;83.28;98930.47;425564;23;982;-90
2023/01/20 00:12:19;;;;;;;18.63;10.93;;;;;;;1.86;82.98;98931.31;422515;23;694;-91
2023/01/20 00:12:31;;;;;;;17.75;10.98;;;;;;;1.88;82.73;98934.72;423789;23;782;-90
2023/01/20 00:12:43;;;;;;;18.65;11.07;;;;;;;1.93;82.54;98935.53;423613;23;962;-91
2023/01/20 00:12:55;;;;;;;18.50;11.02;;;;;;;1.94;82.62;98932.09;423677;23;940;-91
2023/01/20 00:13:07;;;;;;;18.30;11.05;;;;;;;1.96;82.46;98935.47;423557;23;876;-90
2023/01/20 00:13:19;;;;;;;17.17;10.85;;;;;;;1.99;82.67;98925.22;421993;23;874;-90
2023/01/20 00:13:34;;;;;;;17.08;10.75;;;;;;;2.01;82.80;98940.56;422468;23;689;-90
2023/01/20 00:13:47;;;;;;;17.55;10.48;;;;;;;2.02;82.22;98934.59;422443;23;769;-88
2023/01/20 00:14:01;;;;;;;17.33;10.40;;;;;;;2.04;82.34;98932.00;421639;23;921;-88
2023/01/20 00:14:13;;;;;;;16.95;10.77;;;;;;;2.03;82.27;98936.25;419535;23;1006;-87
2023/01/20 00:14:26;;;;;;;16.98;10.65;;;;;;;2.06;82.47;98930.28;419485;23;890;-88
2023/01/20 00:14:38;;;;;;;17.33;10.48;;;;;;;2.09;82.32;98930.22;421528;23;858;-88
2023/01/20 00:14:50;;;;;;;18.00;10.55;;;;;;;2.09;81.91;98930.22;421613;23;1015;-89
2023/01/20 00:15:02;;;;;;;17.05;10.35;;;;;;;2.10;81.96;98926.81;421731;23;843;-90
2023/01/20 00:15:14;;;;;;;17.65;10.60;;;;;;;2.13;81.70;98932.78;419428;23;948;-89
2023/01/20 00:15:26;;;;;;;19.08;10.85;;;;;;;2.15;81.83;98930.16;419597;23;801;-89
2023/01/20 00:15:38;;;;;;;18.02;10.88;;;;;;;2.18;81.71;98930.16;422509;23;685;-89
2023/01/20 00:15:50;;;;;;;18.10;11.25;;;;;;;2.18;81.75;98932.72;419959;23;763;-89
2023/01/20 00:16:08;;;;;;;17.67;11.40;;;;;;;2.24;81.57;98930.09;420538;23;666;-89
2023/01/20 00:16:21;;;;;;;17.17;11.13;;;;;;;2.27;81.77;98936.88;418967;23;1064;-90
2023/01/20 00:16:35;;;;;;;19.30;11.07;;;;;;;2.28;81.89;98931.75;421478;23;892;-90
2023/01/20 00:16:47;;;;;;;18.58;11.00;;;;;;;2.26;81.17;98933.50;421605;23;1085;-89
2023/01/20 00:16:59;;;;;;;19.45;11.23;;;;;;;2.30;81.36;98929.19;423790;23;928;-90
2023/01/20 00:17:11;;;;;;;17.93;10.63;;;;;;;2.29;81.70;98936.00;421675;23;1094;-90
2023/01/20 00:17:24;;;;;;;19.08;10.40;;;;;;;2.32;81.17;98933.41;422187;23;677;-90
2023/01/20 00:17:36;;;;;;;17.80;10.30;;;;;;;2.33;81.35;98929.97;424528;23;719;-89
2023/01/20 00:17:48;;;;;;;17.00;10.02;;;;;;;2.34;81.33;98935.97;421531;23;968;-90
2023/01/20 00:18:00;;;;;;;17.60;10.05;;;;;;;2.36;81.06;98936.81;419741;23;883;-90
2023/01/20 00:18:12;;;;;;;18.60;10.32;;;;;;;2.38;81.30;98937.63;422575;23;677;-90
2023/01/20 00:18:23;;;;;;;17.25;10.07;;;;;;;2.40;81.22;98939.31;421620;23;854;-91
2023/01/20 00:18:37;;;;;;;16.67;10.00;;;;;;;2.42;81.28;98933.34;420995;23;1151;-90
2023/01/20 00:18:49;;;;;;;16.05;9.80;;;;;;;2.43;81.09;98935.00;419583;23;1224;-90
2023/01/20 00:19:01;;;;;;;16.15;9.75;;;;;;;2.44;81.07;98937.56;421882;23;905;-91
2023/01/20 00:19:13;;;;;;;15.48;9.85;;;;;;;2.45;80.69;98938.41;421296;23;1043;-91
2023/01/20 00:19:26;;;;;;;16.77;10.15;;;;;;;2.45;80.57;98938.41;421639;23;978;-91
2023/01/20 00:19:38;;;;;;;17.52;10.20;;;;;;;2.45;80.53;98934.13;421499;23;867;-90
2023/01/20 00:19:50;;;;;;;17.38;10.25;;;;;;;2.47;80.07;98936.69;421181;23;1038;-90
2023/01/20 00:20:03;;;;;;;16.35;10.15;;;;;;;2.48;80.47;98935.81;422339;23;686;-90
2023/01/20 00:20:15;;;;;;;16.45;10.13;;;;;;;2.49;80.59;98942.63;421398;23;966;-89
2023/01/20 00:20:27;;;;;;;16.70;10.18;;;;;;;2.49;79.88;98946.03;420513;23;1002;-91
2023/01/20 00:20:39;;;;;;;16.15;9.98;;;;;;;2.49;80.02;98937.50;421139;23;1068;-94
2023/01/20 00:20:51;;;;;;;15.70;10.07;;;;;;;2.51;80.36;98938.34;419717;23;965;-92
2023/01/20 00:21:05;;;;;;;17.25;10.43;;;;;;;2.52;80.52;98946.03;423160;23;1213;-92
2023/01/20 00:21:17;;;;;;;17.70;10.40;;;;;;;2.51;80.08;98940.91;423750;23;1088;-92
2023/01/20 00:21:29;;;;;;;18.02;10.57;;;;;;;2.52;80.31;98934.91;424623;23;1025;-91
2023/01/20 00:21:42;;;;;;;17.98;10.90;;;;;;;2.51;80.36;98935.78;426516;23;1283;-93
2023/01/20 00:21:54;;;;;;;16.58;10.70;;;;;;;2.54;80.51;98943.44;425140;23;810;-91
2023/01/20 00:22:06;;;;;;;15.05;9.82;;;;;;;2.55;80.23;98940.00;424433;23;881;-92
2023/01/20 00:22:19;;;;;;;14.35;9.52;;;;;;;2.57;80.24;98941.66;425754;23;939;-92
2023/01/20 00:22:31;;;;;;;14.93;9.32;;;;;;;2.57;80.11;98943.41;425922;23;1118;-92
2023/01/20 00:22:43;;;;;;;14.57;9.48;;;;;;;2.58;80.46;98945.09;428165;23;924;-94
2023/01/20 00:22:55;;;;;;;14.75;9.85;;;;;;;2.56;80.16;98941.72;423803;23;918;-91
2023/01/20 00:23:07;;;;;;;15.57;10.15;;;;;;;2.55;79.86;98940.00;422646;23;886;-90
2023/01/20 00:23:19;;;;;;;15.20;9.85;;;;;;;2.57;80.31;98943.41;424596;23;913;-89
2023/01/20 00:23:31;;;;;;;14.50;9.43;;;;;;;2.57;79.91;98941.66;423314;23;1064;-90
2023/01/20 00:23:45;;;;;;;14.65;9.20;;;;;;;2.57;79.87;98945.97;421734;23;1064;-90
2023/01/20 00:23:57;;;;;;;15.18;9.43;;;;;;;2.58;79.80;98943.38;419550;23;940;-89
2023/01/20 00:24:09;;;;;;;14.77;9.50;;;;;;;2.58;79.99;98938.25;423820;23;1915;-89
2023/01/20 00:24:21;;;;;;;15.68;9.73;;;;;;;2.59;79.66;98941.66;423772;23;1096;-89
2023/01/20 00:24:33;;;;;;;16.17;9.52;;;;;;;2.60;80.02;98945.94;421991;23;944;-90
2023/01/20 00:24:45;;;;;;;16.67;9.82;;;;;;;2.60;79.83;98940.81;421508;23;1028;-89
2023/01/20 00:24:57;;;;;;;15.93;9.95;;;;;;;2.60;80.02;98938.25;423378;23;1091;-89
2023/01/20 00:25:09;;;;;;;16.52;9.77;;;;;;;2.59;79.87;98931.41;422975;23;1130;-89
2023/01/20 00:25:22;;;;;;;16.80;9.70;;;;;;;2.58;79.83;98940.81;422978;23;992;-88
2023/01/20 00:25:35;;;;;;;15.55;9.57;;;;;;;2.57;79.73;98940.84;422312;23;888;-89
2023/01/20 00:25:47;;;;;;;13.63;9.05;;;;;;;2.57;79.71;98943.41;423726;23;904;-88
2023/01/20 00:26:04;;;;;;;13.38;9.10;;;;;;;2.56;79.11;98941.72;426707;23;714;-88
2023/01/20 00:26:19;;;;;;;14.18;9.55;;;;;;;2.55;79.87;98940.00;426778;23;800;-90
2023/01/20 00:26:31;;;;;;;14.65;9.32;;;;;;;2.58;79.31;98945.09;426163;23;937;-89
2023/01/20 00:26:44;;;;;;;14.65;8.98;;;;;;;2.55;79.62;98942.56;423865;23;976;-89
2023/01/20 00:26:56;;;;;;;15.23;9.40;;;;;;;2.56;79.57;98944.28;424763;23;696;-89
2023/01/20 00:27:08;;;;;;;15.27;9.52;;;;;;;2.56;79.44;98942.56;426844;23;684;-89
2023/01/20 00:27:20;;;;;;;15.48;9.75;;;;;;;2.49;79.59;98940.06;424122;23;893;-89
2023/01/20 00:27:32;;;;;;;14.80;9.52;;;;;;;2.48;79.66;98935.81;423616;23;938;-89
2023/01/20 00:27:45;;;;;;;14.70;9.70;;;;;;;2.44;80.00;98937.56;421874;23;854;-89
2023/01/20 00:27:57;;;;;;;15.23;9.43;;;;;;;2.38;79.91;98935.06;423606;23;1150;-89
2023/01/20 00:28:09;;;;;;;15.30;9.35;;;;;;;2.40;79.85;98936.75;423827;23;966;-89
2023/01/20 00:28:21;;;;;;;14.45;9.18;;;;;;;2.44;79.64;98939.28;421787;23;965;-88
2023/01/20 00:28:35;;;;;;;15.43;8.98;;;;;;;2.41;79.72;98937.59;419808;23;1082;-89
2023/01/20 00:28:52;;;;;;;14.98;8.68;;;;;;;2.32;79.54;98935.97;419756;23;1039;-89
2023/01/20 00:29:04;;;;;;;14.07;9.00;;;;;;;2.32;79.70;98932.56;419464;23;895;-89
2023/01/20 00:29:16;;;;;;;14.27;9.10;;;;;;;2.34;79.85;98936.81;419682;23;965;-90
2023/01/20 00:29:28;;;;;;;14.45;9.13;;;;;;;2.36;80.12;98937.66;419041;23;1120;-89
2023/01/20 00:29:43;;;;;;;13.57;8.98;;;;;;;2.33;79.98;98940.22;420528;23;690;-90
2023/01/20 00:29:55;;;;;;;13.25;8.63;;;;;;;2.34;79.98;98939.38;422034;23;926;-90
2023/01/20 00:30:07;;;;;;;13.95;8.63;;;;;;;2.34;79.74;98931.69;421721;23;1176;-89
2023/01/20 00:30:20;;;;;;;14.88;8.63;;;;;;;2.35;80.14;98938.50;423421;23;1164;-89
2023/01/20 00:30:32;;;;;;;14.55;8.55;;;;;;;2.33;80.36;98935.09;423943;23;981;-89
2023/01/20 00:30:45;;;;;;;15.27;8.60;;;;;;;2.35;80.10;98941.06;423791;23;818;-89
2023/01/20 00:30:56;;;;;;;15.27;8.73;;;;;;;2.36;80.25;98940.22;421745;23;938;-90
2023/01/20 00:31:18;;;;;;;15.55;8.98;;;;;;;2.38;80.00;98937.63;419813;23;906;-89
2023/01/20 00:31:33;;;;;;;13.93;9.10;;;;;;;2.35;80.26;98935.94;419551;23;1024;-89
2023/01/20 00:31:48;;;;;;;14.85;9.32;;;;;;;2.31;80.22;98936.84;419657;23;1250;-89
2023/01/20 00:32:01;;;;;;;16.37;9.70;;;;;;;2.31;80.04;98936.84;418611;23;690;-89
2023/01/20 00:32:13;;;;;;;16.65;9.65;;;;;;;2.30;80.11;98942.84;417750;23;875;-89
2023/01/20 00:32:25;;;;;;;15.10;8.90;;;;;;;2.29;80.28;98941.13;420465;23;674;-90
2023/01/20 00:32:38;;;;;;;14.60;8.43;;;;;;;2.32;80.12;98937.72;420514;23;686;-90
2023/01/20 00:32:51;;;;;;;13.15;8.27;;;;;;;2.30;80.23;98945.41;419598;23;1037;-90
2023/01/20 00:33:03;;;;;;;13.10;8.55;;;;;;;2.28;80.12;98942.00;419971;23;844;-89
2023/01/20 00:33:15;;;;;;;13.13;8.77;;;;;;;2.29;79.92;98943.69;417826;23;958;-88
2023/01/20 00:33:26;;;;;;;12.95;8.70;;;;;;;2.26;79.88;98936.06;419757;23;1010;-89
2023/01/20 00:33:39;;;;;;;13.25;8.60;;;;;;;2.23;80.13;98942.91;420508;23;681;-90
2023/01/20 00:33:53;;;;;;;13.98;8.90;;;;;;;2.20;80.15;98939.53;421789;23;1041;-89
2023/01/20 00:34:05;;;;;;;14.70;9.30;;;;;;;2.22;80.12;98939.50;421727;23;1123;-89
2023/01/20 00:34:17;;;;;;;14.45;9.07;;;;;;;2.22;79.96;98942.06;422035;23;807;-90
2023/01/20 00:34:29;;;;;;;13.47;8.97;;;;;;;2.20;80.37;98938.69;421308;23;1273;-89
2023/01/20 00:34:41;;;;;;;13.02;8.55;;;;;;;2.15;80.25;98948.13;420068;23;691;-89
2023/01/20 00:34:53;;;;;;;12.48;8.40;;;;;;;2.19;80.31;98947.22;422570;23;689;-89
2023/01/20 00:35:06;;;;;;;12.43;8.38;;;;;;;2.17;80.17;98943.81;422108;23;822;-89
2023/01/20 00:35:18;;;;;;;13.52;8.48;;;;;;;2.21;80.24;98948.06;421498;23;1070;-89
2023/01/20 00:35:30;;;;;;;15.00;8.57;;;;;;;2.20;80.25;98944.66;421656;23;1191;-89
2023/01/20 00:35:42;;;;;;;14.00;8.65;;;;;;;2.22;80.63;98948.94;421435;23;1063;-89
2023/01/20 00:35:54;;;;;;;14.25;8.80;;;;;;;2.24;80.20;98942.06;420160;23;896;-89
2023/01/20 00:36:07;;;;;;;13.95;9.05;;;;;;;2.26;80.31;98948.88;420348;23;687;-89
2023/01/20 00:36:19;;;;;;;12.68;8.90;;;;;;;2.27;80.08;98950.56;421641;23;1090;-90
2023/01/20 00:36:32;;;;;;;11.73;8.57;;;;;;;2.24;79.96;98949.75;421832;23;1018;-90
2023/01/20 00:36:44;;;;;;;12.27;8.40;;;;;;;2.26;80.29;98943.75;421802;23;975;-90
2023/01/20 00:36:56;;;;;;;13.13;8.32;;;;;;;2.17;80.20;98943.81;423652;23;1027;-89
2023/01/20 00:37:08;;;;;;;12.50;8.23;;;;;;;2.19;80.27;98942.97;422459;23;697;-89
2023/01/20 00:37:20;;;;;;;12.93;8.35;;;;;;;2.15;79.96;98943.00;421477;23;1189;-90
2023/01/20 00:37:32;;;;;;;12.90;8.20;;;;;;;2.17;80.17;98951.50;419555;23;779;-90
2023/01/20 00:37:44;;;;;;;12.88;8.30;;;;;;;2.19;80.33;98942.09;419653;23;1054;-88
2023/01/20 00:37:56;;;;;;;14.35;8.40;;;;;;;2.20;79.93;98960.03;420609;23;686;-90
2023/01/20 00:38:08;;;;;;;13.20;8.23;;;;;;;2.18;80.32;98946.38;422123;23;861;-90
2023/01/20 00:38:20;;;;;;;13.52;8.25;;;;;;;2.13;80.16;98952.41;421141;23;1206;-89
2023/01/20 00:38:32;;;;;;;12.70;8.25;;;;;;;2.14;80.17;98951.56;422303;23;720;-90
2023/01/20 00:38:45;;;;;;;13.88;8.52;;;;;;;2.14;80.08;98946.44;421752;23;1183;-89
2023/01/20 00:38:57;;;;;;;15.63;8.73;;;;;;;2.15;79.86;98949.00;423793;23;985;-88
2023/01/20 00:39:09;;;;;;;16.00;8.70;;;;;;;2.09;79.88;98953.31;423736;23;1161;-89
2023/01/20 00:39:21;;;;;;;15.98;8.35;;;;;;;2.09;80.54;98945.63;424604;23;692;-89
2023/01/20 00:39:33;;;;;;;15.10;8.38;;;;;;;2.04;80.42;98955.09;423629;23;1187;-90
2023/01/20 00:39:45;;;;;;;15.35;8.55;;;;;;;2.06;80.34;98948.22;421726;23;1167;-89
2023/01/20 00:39:57;;;;;;;13.90;8.48;;;;;;;2.06;80.37;98946.50;421706;23;1058;-89
2023/01/20 00:40:09;;;;;;;14.57;8.43;;;;;;;2.03;80.49;98953.38;422537;23;693;-89
2023/01/20 00:40:21;;;;;;;14.07;8.75;;;;;;;1.98;80.63;98949.13;423578;23;1016;-90
2023/01/20 00:40:33;;;;;;;13.55;8.85;;;;;;;1.98;81.03;98956.81;423779;23;1146;-90
2023/01/20 00:40:52;;;;;;;13.15;8.77;;;;;;;2.02;80.56;98959.38;424756;23;672;-89
2023/01/20 00:41:05;;;;;;;13.80;8.48;;;;;;;1.97;80.35;98959.38;421727;23;909;-89
2023/01/20 00:41:17;;;;;;;14.88;8.60;;;;;;;1.96;80.95;98956.00;420615;23;717;-89
2023/01/20 00:41:29;;;;;;;16.13;8.82;;;;;;;1.96;80.86;98950.84;420426;23;717;-89
2023/01/20 00:41:44;;;;;;;14.68;8.55;;;;;;;1.95;80.38;98958.56;419678;23;1345;-89
2023/01/20 00:41:56;;;;;;;13.05;8.27;;;;;;;1.93;81.11;98955.16;419833;23;1065;-89
2023/01/20 00:42:08;;;;;;;15.00;8.50;;;;;;;1.91;80.92;98962.88;419710;23;1161;-89
2023/01/20 00:42:20;;;;;;;14.40;8.65;;;;;;;1.93;81.01;98956.03;418553;23;674;-90
2023/01/20 00:42:32;;;;;;;14.25;8.85;;;;;;;1.96;80.95;98956.00;421615;23;946;-89
2023/01/20 00:42:44;;;;;;;14.38;8.68;;;;;;;1.98;81.18;98959.38;423866;23;971;-89
2023/01/20 00:42:56;;;;;;;14.77;8.77;;;;;;;1.99;80.48;98947.41;425887;23;1132;-89
2023/01/20 00:43:08;;;;;;;14.32;8.63;;;;;;;2.02;80.59;98959.38;426798;23;680;-89
2023/01/20 00:43:20;;;;;;;14.32;8.55;;;;;;;2.01;80.86;98961.06;423322;23;1070;-89
2023/01/20 00:43:32;;;;;;;14.60;8.30;;;;;;;2.03;80.76;98961.91;423901;23;1058;-89
2023/01/20 00:43:44;;;;;;;14.60;8.45;;;;;;;2.05;80.69;98955.03;423837;23;1018;-89
2023/01/20 00:43:56;;;;;;;13.43;8.32;;;;;;;2.07;80.77;98962.72;422040;23;913;-90
2023/01/20 00:44:08;;;;;;;13.63;8.50;;;;;;;2.07;80.77;98958.44;420628;23;690;-90
2023/01/20 00:44:20;;;;;;;13.57;8.73;;;;;;;2.06;80.79;98963.59;417462;23;1142;-89
2023/01/20 00:44:35;;;;;;;14.13;8.73;;;;;;;2.05;80.42;98960.16;421777;23;970;-89
2023/01/20 00:44:48;;;;;;;12.70;8.30;;;;;;;2.06;80.30;98961.03;423828;23;1050;-89
2023/01/20 00:45:00;;;;;;;13.93;8.63;;;;;;;2.08;80.39;98959.31;422269;23;832;-88
2023/01/20 00:45:12;;;;;;;14.02;8.80;;;;;;;2.08;80.61;98959.31;421833;23;1160;-89
2023/01/20 00:45:24;;;;;;;13.15;8.70;;;;;;;2.07;80.61;98963.56;419770;23;1161;-90
2023/01/20 00:45:36;;;;;;;13.35;8.88;;;;;;;2.09;80.45;98961.00;420553;23;681;-89
2023/01/20 00:45:48;;;;;;;15.18;9.23;;;;;;;2.07;80.61;98957.59;421888;23;934;-89
2023/01/20 00:46:00;;;;;;;15.40;8.98;;;;;;;2.07;80.85;98963.56;421019;23;1897;-89
2023/01/20 00:46:13;;;;;;;15.13;8.82;;;;;;;2.09;80.59;98963.56;419972;23;1098;-90
2023/01/20 00:46:25;;;;;;;16.25;9.00;;;;;;;2.09;80.68;98964.41;422408;23;716;-89
2023/01/20 00:46:37;;;;;;;15.07;8.82;;;;;;;2.12;80.54;98960.97;421681;23;1057;-89
2023/01/20 00:46:49;;;;;;;15.23;8.80;;;;;;;2.13;80.44;98957.53;419644;23;864;-89
2023/01/20 00:47:02;;;;;;;14.27;8.88;;;;;;;2.14;80.39;98964.38;421521;23;968;-90
2023/01/20 00:47:14;;;;;;;14.18;8.70;;;;;;;2.14;80.33;98965.22;423710;23;1038;-89
2023/01/20 00:47:26;;;;;;;13.93;8.70;;;;;;;2.16;80.33;98957.53;421709;23;855;-90
2023/01/20 00:47:38;;;;;;;14.80;8.88;;;;;;;2.16;80.25;98965.22;423781;23;1057;-89
2023/01/20 00:47:50;;;;;;;14.30;8.85;;;;;;;2.16;80.44;98967.78;426558;23;683;-89
2023/01/20 00:48:02;;;;;;;15.23;8.90;;;;;;;2.17;80.16;98959.22;425855;23;1016;-88
2023/01/20 00:48:14;;;;;;;13.85;8.68;;;;;;;2.17;80.32;98965.22;423810;23;863;-88
2023/01/20 00:48:26;;;;;;;14.68;8.88;;;;;;;2.19;79.99;98960.03;423712;23;1054;-89
2023/01/20 00:48:38;;;;;;;14.00;8.73;;;;;;;2.21;80.21;98966.00;423671;23;1019;-89
2023/01/20 00:48:50;;;;;;;13.38;8.40;;;;;;;2.19;79.94;98962.59;421682;23;1023;-89
2023/01/20 00:49:02;;;;;;;13.90;8.35;;;;;;;2.19;80.07;98962.59;421901;23;778;-90
2023/01/20 00:49:14;;;;;;;13.75;8.20;;;;;;;2.22;80.24;98960.03;421531;23;1091;-88
2023/01/20 00:49:26;;;;;;;12.68;8.30;;;;;;;2.20;79.79;98954.91;422499;23;677;-89
2023/01/20 00:49:38;;;;;;;13.15;8.55;;;;;;;2.12;80.28;98960.97;419469;23;947;-89
2023/01/20 00:49:50;;;;;;;13.52;8.70;;;;;;;2.12;79.88;98963.53;421734;23;959;-89
2023/01/20 00:50:03;;;;;;;14.13;8.77;;;;;;;2.07;80.30;98961.00;423759;23;1010;-89
2023/01/20 00:50:15;;;;;;;13.88;8.65;;;;;;;2.05;80.04;98964.44;426591;23;702;-89
2023/01/20 00:50:27;;;;;;;13.35;8.38;;;;;;;2.07;80.59;98967.84;425961;23;970;-88
2023/01/20 00:50:39;;;;;;;11.75;7.80;;;;;;;2.09;80.24;98966.97;427939;23;867;-88
2023/01/20 00:50:51;;;;;;;11.52;7.70;;;;;;;2.08;80.21;98969.56;425870;23;1112;-89
2023/01/20 00:51:04;;;;;;;13.00;7.93;;;;;;;2.08;80.41;98961.88;425829;23;957;-89
2023/01/20 00:51:16;;;;;;;14.43;8.25;;;;;;;2.10;80.25;98966.13;423268;23;990;-89
2023/01/20 00:51:28;;;;;;;14.27;8.05;;;;;;;2.07;80.48;98963.56;424609;23;715;-89
2023/01/20 00:51:40;;;;;;;12.43;8.15;;;;;;;2.03;80.05;98967.03;421614;23;1169;-89
2023/01/20 00:51:52;;;;;;;12.13;8.15;;;;;;;2.04;80.43;98965.34;421653;23;1195;-89
2023/01/20 00:52:04;;;;;;;11.02;7.75;;;;;;;2.04;80.36;98967.91;423843;23;872;-89
2023/01/20 00:52:19;;;;;;;11.82;7.60;;;;;;;2.04;80.78;98966.19;423581;23;982;-88
2023/01/20 00:52:31;;;;;;;13.18;8.13;;;;;;;2.04;80.08;98967.91;423960;23;967;-89
2023/01/20 00:52:43;;;;;;;12.65;8.00;;;;;;;2.04;80.05;98968.75;419817;23;967;-89
2023/01/20 00:52:55;;;;;;;12.45;8.23;;;;;;;2.03;80.23;98969.59;421806;23;965;-89
2023/01/20 00:53:07;;;;;;;13.70;8.60;;;;;;;1.99;79.95;98976.47;419514;23;1041;-89
2023/01/20 00:53:19;;;;;;;14.00;8.75;;;;;;;1.86;80.68;98969.75;419409;23;860;-90
2023/01/20 00:53:31;;;;;;;14.05;8.57;;;;;;;1.81;80.84;98968.91;420545;23;682;-88
2023/01/20 00:53:44;;;;;;;13.93;8.45;;;;;;;1.74;81.19;98969.84;419629;23;1124;-89
2023/01/20 00:53:56;;;;;;;12.90;7.95;;;;;;;1.76;81.17;98968.13;422602;23;677;-90
2023/01/20 00:54:07;;;;;;;13.13;7.78;;;;;;;1.78;80.90;98968.97;422642;23;681;-88
2023/01/20 00:54:20;;;;;;;12.95;7.85;;;;;;;1.79;81.38;98973.22;421566;23;1007;-89
2023/01/20 00:54:32;;;;;;;13.82;8.43;;;;;;;1.81;81.01;98971.47;421660;23;975;-89
2023/01/20 00:54:44;;;;;;;13.85;8.60;;;;;;;1.84;81.56;98965.50;421631;23;960;-88
2023/01/20 00:54:56;;;;;;;14.15;8.75;;;;;;;1.84;81.47;98970.63;421325;23;1681;-89
2023/01/20 00:55:08;;;;;;;15.18;8.90;;;;;;;1.86;80.96;98971.47;422581;23;689;-89
2023/01/20 00:55:20;;;;;;;15.40;9.15;;;;;;;1.88;81.34;98978.28;420531;23;721;-88
2023/01/20 00:55:32;;;;;;;15.88;9.02;;;;;;;1.91;81.41;98973.13;420483;23;639;-89
2023/01/20 00:55:44;;;;;;;14.90;8.63;;;;;;;1.94;80.87;98973.09;419446;23;925;-89
2023/01/20 00:55:56;;;;;;;15.20;8.82;;;;;;;1.97;81.14;98967.97;420628;23;703;-88
2023/01/20 00:56:08;;;;;;;17.35;9.05;;;;;;;1.94;80.68;98975.66;419094;23;1172;-89
2023/01/20 00:56:20;;;;;;;17.50;9.07;;;;;;;1.85;80.82;98975.75;419840;23;977;-89
2023/01/20 00:56:32;;;;;;;16.30;8.82;;;;;;;1.90;80.52;98975.72;419826;23;1066;-89
2023/01/20 00:56:44;;;;;;;17.70;9.23;;;;;;;1.88;81.07;98975.72;419972;23;844;-89
2023/01/20 00:56:56;;;;;;;18.73;9.30;;;;;;;1.86;80.57;98977.44;421898;23;1091;-89
2023/01/20 00:57:08;;;;;;;18.40;9.13;;;;;;;1.89;81.12;98972.31;421762;23;947;-89
2023/01/20 00:57:20;;;;;;;18.33;9.05;;;;;;;1.90;80.62;98979.09;421111;23;1020;-89
2023/01/20 00:57:32;;;;;;;17.60;9.18;;;;;;;1.84;81.01;98971.47;424342;23;697;-88
2023/01/20 00:57:44;;;;;;;17.13;9.25;;;;;;;1.78;80.76;98977.50;423943;23;850;-89
2023/01/20 00:57:56;;;;;;;17.73;9.60;;;;;;;1.77;81.08;98980.06;422619;23;685;-88
2023/01/20 00:58:08;;;;;;;20.50;9.43;;;;;;;1.73;80.87;98971.56;421389;23;858;-89
2023/01/20 00:58:20;;;;;;;19.67;9.05;;;;;;;1.75;80.91;98974.09;424621;23;677;-89
2023/01/20 00:58:32;;;;;;;19.20;8.77;;;;;;;1.74;81.59;98974.97;423492;23;930;-89
2023/01/20 00:58:44;;;;;;;18.85;8.90;;;;;;;1.72;81.61;98972.41;424042;23;757;-89
2023/01/20 00:58:56;;;;;;;19.83;9.57;;;;;;;1.71;81.57;98969.84;420570;23;674;-88
2023/01/20 00:59:09;;;;;;;17.90;9.68;;;;;;;1.74;81.61;98974.97;419754;23;858;-87
2023/01/20 00:59:24;;;;;;;17.55;9.30;;;;;;;1.73;81.54;98973.25;417688;23;903;-87
2023/01/20 00:59:36;;;;;;;18.77;9.38;;;;;;;1.72;81.71;98976.69;418076;23;836;-88
2023/01/20 00:59:48;;;;;;;19.92;9.50;;;;;;;1.75;81.17;98974.09;419438;23;902;-89
2023/01/20 01:00:00;;;;;;;19.92;9.30;;;;;;;1.73;81.09;98973.25;420461;23;686;-89
2023/01/20 01:00:12;;;;;;;18.42;9.10;;;;;;;1.78;81.30;98976.66;417709;23;948;-89
2023/01/20 01:00:24;;;;;;;17.90;9.07;;;;;;;1.80;81.40;98975.75;418753;23;682;-89
2023/01/20 01:00:36;;;;;;;17.65;9.38;;;;;;;1.82;81.36;98980.88;419939;23;951;-89
2023/01/20 01:00:50;;;;;;;17.48;9.68;;;;;;;1.80;80.91;98977.50;421568;23;1213;-88
2023/01/20 01:01:03;;;;;;;16.93;9.37;;;;;;;1.81;81.23;98976.59;419768;23;844;-89